Time;durP1;ratioP1;P1;durP2;ratioP2;P2;SDS_P1;SDS_P2;PMS_P1;PMS_P2;Temp;Humidity;BMP_temperature;BMP_pressure;BME280_temperature;BME280_humidity;BME280_pressure;Samples;Min_cycle;Max_cycle;Signal;HPM_P1;HPM_P2
2023/09/22 00:00:49;;;;;;;6.07;2.60;;;13.70;99.90;;;;;;5093451;28;20052;-63
2023/09/22 00:03:16;;;;;;;3.25;1.85;;;13.70;99.90;;;;;;5093179;28;20431;-62
2023/09/22 00:05:43;;;;;;;7.03;1.75;;;13.80;99.90;;;;;;5091623;28;20045;-63
2023/09/22 00:08:10;;;;;;;3.08;1.90;;;13.80;99.90;;;;;;5092356;28;20052;-62
2023/09/22 00:10:38;;;;;;;2.17;1.40;;;13.80;99.90;;;;;;5093789;28;20137;-62
2023/09/22 00:13:05;;;;;;;2.30;1.52;;;13.80;99.90;;;;;;5092289;28;20059;-63
2023/09/22 00:15:34;;;;;;;3.58;1.58;;;13.80;99.90;;;;;;5093064;28;20054;-62
2023/09/22 00:18:01;;;;;;;2.40;1.52;;;13.80;99.90;;;;;;5092155;28;20051;-62
2023/09/22 00:20:28;;;;;;;2.70;1.50;;;13.80;99.90;;;;;;5091831;28;20385;-63
2023/09/22 00:22:54;;;;;;;3.63;1.60;;;13.90;99.90;;;;;;5092768;28;20093;-63
2023/09/22 00:25:22;;;;;;;3.35;1.38;;;13.90;99.90;;;;;;5092290;28;20495;-63
2023/09/22 00:27:50;;;;;;;3.63;1.63;;;13.90;99.90;;;;;;5090683;28;20064;-63
2023/09/22 00:30:17;;;;;;;3.47;1.90;;;13.90;99.90;;;;;;5092729;28;20055;-63
2023/09/22 00:32:44;;;;;;;4.03;1.90;;;14.00;99.90;;;;;;5091955;28;20082;-63
2023/09/22 00:35:12;;;;;;;2.70;1.70;;;14.00;99.90;;;;;;5093926;28;20551;-63
2023/09/22 00:37:40;;;;;;;2.58;1.77;;;14.00;99.90;;;;;;5092388;28;20051;-63
2023/09/22 00:40:09;;;;;;;4.88;2.10;;;14.00;99.90;;;;;;5092118;28;21403;-63
2023/09/22 00:42:36;;;;;;;3.13;2.05;;;14.00;99.90;;;;;;5092606;28;20048;-63
2023/09/22 00:45:05;;;;;;;3.75;2.63;;;14.00;99.90;;;;;;5093705;28;20055;-63
2023/09/22 00:47:32;;;;;;;4.15;3.03;;;14.00;99.90;;;;;;5093021;28;20051;-63
2023/09/22 00:50:00;;;;;;;5.82;3.20;;;14.10;99.90;;;;;;5092269;28;20503;-64
2023/09/22 00:52:27;;;;;;;6.75;3.67;;;14.10;99.90;;;;;;5092537;28;20055;-64
2023/09/22 00:54:56;;;;;;;5.93;3.65;;;14.10;99.90;;;;;;5091736;28;20040;-62
2023/09/22 00:57:23;;;;;;;5.50;3.80;;;14.10;99.90;;;;;;5091832;28;20110;-63
2023/09/22 00:59:51;;;;;;;9.43;4.82;;;14.10;99.90;;;;;;5091673;28;20407;-64
2023/09/22 01:02:20;;;;;;;14.32;4.90;;;14.10;99.90;;;;;;5092138;28;20555;-63
2023/09/22 01:04:47;;;;;;;7.63;4.95;;;14.00;99.90;;;;;;5092042;28;20131;-63
2023/09/22 01:07:14;;;;;;;7.25;5.38;;;14.00;99.90;;;;;;5091526;28;20052;-63
2023/09/22 01:09:41;;;;;;;8.45;5.22;;;14.00;99.90;;;;;;5092244;28;20067;-63
2023/09/22 01:12:09;;;;;;;9.60;6.00;;;13.90;99.90;;;;;;5090630;28;20056;-63
2023/09/22 01:14:36;;;;;;;10.50;6.15;;;13.90;99.90;;;;;;5091275;28;20054;-62
2023/09/22 01:17:03;;;;;;;10.00;6.70;;;13.90;99.90;;;;;;5092152;28;20055;-63
2023/09/22 01:19:31;;;;;;;10.68;7.22;;;14.00;99.90;;;;;;5092471;28;20052;-64
2023/09/22 01:22:00;;;;;;;12.70;6.97;;;13.90;99.90;;;;;;5091100;28;20067;-63
2023/09/22 01:24:27;;;;;;;12.30;8.10;;;13.90;99.90;;;;;;5091446;28;20044;-63
2023/09/22 01:26:54;;;;;;;13.35;8.07;;;13.90;99.90;;;;;;5092971;28;20487;-63
2023/09/22 01:29:21;;;;;;;11.57;8.32;;;13.90;99.90;;;;;;5091073;28;20408;-63
2023/09/22 01:31:47;;;;;;;13.07;8.55;;;13.90;99.90;;;;;;5092641;28;20048;-63
2023/09/22 01:34:15;;;;;;;12.60;9.13;;;13.90;99.90;;;;;;5089274;28;20040;-64
2023/09/22 01:36:43;;;;;;;12.57;8.20;;;13.90;99.90;;;;;;5090691;28;20105;-63
2023/09/22 01:39:14;;;;;;;13.80;9.00;;;13.90;99.90;;;;;;5082004;28;20060;-63
2023/09/22 01:41:41;;;;;;;17.77;10.07;;;13.90;99.90;;;;;;5092503;28;20043;-61
2023/09/22 01:44:08;;;;;;;14.52;10.00;;;13.80;99.90;;;;;;5090783;28;20089;-63
2023/09/22 01:46:35;;;;;;;14.68;10.32;;;13.90;99.90;;;;;;5090963;28;20052;-63
2023/09/22 01:49:02;;;;;;;15.52;10.10;;;13.90;99.90;;;;;;5090593;28;20487;-63
2023/09/22 01:51:29;;;;;;;35.15;11.63;;;13.80;99.90;;;;;;5091313;28;20056;-63
2023/09/22 01:53:56;;;;;;;16.42;11.40;;;13.80;99.90;;;;;;5090967;28;20105;-63
2023/09/22 01:56:25;;;;;;;17.55;12.27;;;13.80;99.90;;;;;;5090164;28;20567;-63
2023/09/22 01:58:52;;;;;;;17.70;12.70;;;13.90;99.90;;;;;;5090808;28;20054;-64
2023/09/22 02:01:17;;;;;;;19.30;12.80;;;13.90;99.90;;;;;;5091128;28;20056;-63
2023/09/22 02:03:44;;;;;;;19.25;12.25;;;13.90;99.90;;;;;;5090461;28;20044;-63
2023/09/22 02:06:11;;;;;;;20.60;13.75;;;13.90;99.90;;;;;;5091074;28;20060;-63
2023/09/22 02:08:38;;;;;;;24.33;15.32;;;13.90;99.90;;;;;;5090988;28;20515;-63
2023/09/22 02:11:05;;;;;;;20.35;14.82;;;14.00;99.90;;;;;;5091272;28;20046;-63
2023/09/22 02:13:33;;;;;;;24.50;14.45;;;14.00;99.90;;;;;;5090501;28;20077;-63
2023/09/22 02:16:00;;;;;;;23.73;15.27;;;14.00;99.90;;;;;;5091785;28;20044;-64
2023/09/22 02:18:27;;;;;;;21.77;14.68;;;14.00;99.90;;;;;;5091291;28;20040;-62
2023/09/22 02:20:54;;;;;;;21.75;15.20;;;14.10;99.90;;;;;;5089094;28;20412;-63
2023/09/22 02:23:22;;;;;;;27.27;16.02;;;14.10;99.90;;;;;;5090581;28;20043;-64
2023/09/22 02:25:48;;;;;;;23.52;16.10;;;14.10;99.90;;;;;;5089874;28;20091;-62
2023/09/22 02:28:15;;;;;;;23.48;15.27;;;14.10;99.90;;;;;;5091665;28;20047;-63
2023/09/22 02:30:44;;;;;;;23.58;15.63;;;14.10;99.90;;;;;;5090615;28;20446;-63
2023/09/22 02:33:10;;;;;;;22.73;16.70;;;14.10;99.90;;;;;;5089832;28;20051;-62
2023/09/22 02:35:41;;;;;;;23.05;16.55;;;14.10;99.90;;;;;;5090360;28;20407;-63
2023/09/22 02:38:08;;;;;;;;;;;14.10;99.90;;;;;;5091441;28;20048;-63
2023/09/22 02:40:35;;;;;;;22.88;16.88;;;14.10;99.90;;;;;;5095325;28;20376;-62
2023/09/22 02:43:03;;;;;;;22.58;15.48;;;14.10;99.90;;;;;;5089974;28;20059;-63
2023/09/22 02:45:30;;;;;;;21.27;15.73;;;14.20;99.90;;;;;;5089410;28;20055;-62
2023/09/22 02:47:58;;;;;;;22.80;15.45;;;14.20;99.90;;;;;;5090051;28;20519;-62
2023/09/22 02:50:25;;;;;;;25.65;17.65;;;14.20;99.90;;;;;;5089874;28;20547;-62
2023/09/22 02:52:52;;;;;;;25.23;17.17;;;14.20;99.90;;;;;;5089262;28;20109;-62
2023/09/22 02:55:19;;;;;;;24.08;17.63;;;14.20;99.90;;;;;;5090152;28;20050;-62
2023/09/22 02:57:47;;;;;;;22.48;17.13;;;14.20;99.90;;;;;;5089706;28;20522;-62
2023/09/22 03:00:18;;;;;;;24.77;16.88;;;14.20;99.90;;;;;;5090203;28;20050;-62
2023/09/22 03:02:45;;;;;;;25.77;17.95;;;14.20;99.90;;;;;;5090245;28;20051;-62
2023/09/22 03:05:15;;;;;;;23.52;16.90;;;14.20;99.90;;;;;;5089468;28;20055;-62
2023/09/22 03:07:42;;;;;;;27.90;17.80;;;14.20;99.90;;;;;;5088355;28;20064;-62
2023/09/22 03:10:10;;;;;;;28.33;17.60;;;14.20;99.90;;;;;;5087704;28;20079;-62
2023/09/22 03:12:38;;;;;;;25.52;17.50;;;14.20;99.90;;;;;;5089954;28;20109;-62
2023/09/22 03:15:09;;;;;;;26.15;17.48;;;14.10;99.90;;;;;;5088781;28;20085;-63
2023/09/22 03:17:36;;;;;;;26.77;17.70;;;14.10;99.90;;;;;;5088551;28;20080;-63
2023/09/22 03:20:06;;;;;;;24.67;17.13;;;14.10;99.90;;;;;;5089769;28;20409;-63
2023/09/22 03:22:34;;;;;;;24.15;16.85;;;14.00;99.90;;;;;;5089025;28;20044;-63
2023/09/22 03:25:01;;;;;;;25.55;17.15;;;14.10;99.90;;;;;;5089447;28;20048;-63
2023/09/22 03:27:32;;;;;;;24.58;15.07;;;14.00;99.90;;;;;;5088988;28;20058;-63
2023/09/22 03:29:59;;;;;;;21.17;15.25;;;14.00;99.90;;;;;;5090364;28;20036;-63
2023/09/22 03:32:27;;;;;;;22.17;14.38;;;14.00;99.90;;;;;;5089694;28;20044;-63
2023/09/22 03:34:54;;;;;;;21.08;14.98;;;14.00;99.90;;;;;;5088946;28;20454;-63
2023/09/22 03:37:21;;;;;;;21.58;13.95;;;13.90;99.90;;;;;;5088779;28;20056;-63
2023/09/22 03:39:50;;;;;;;22.33;14.25;;;13.90;99.90;;;;;;5089405;28;20047;-63
2023/09/22 03:42:17;;;;;;;19.35;13.30;;;13.80;99.90;;;;;;5090025;28;20412;-63
2023/09/22 03:44:44;;;;;;;18.67;12.43;;;13.90;99.90;;;;;;5083242;28;20036;-63
2023/09/22 03:47:11;;;;;;;18.58;12.55;;;13.90;99.90;;;;;;5083022;28;20044;-63
2023/09/22 03:49:38;;;;;;;16.40;11.23;;;13.90;99.90;;;;;;5083260;28;20066;-63
2023/09/22 03:52:05;;;;;;;16.23;10.88;;;13.90;99.90;;;;;;5084526;28;20056;-63
2023/09/22 03:54:32;;;;;;;20.85;14.07;;;14.00;99.90;;;;;;5085591;28;20040;-63
2023/09/22 03:57:01;;;;;;;21.73;13.00;;;14.10;99.90;;;;;;5086424;28;20130;-63
2023/09/22 03:59:28;;;;;;;17.50;13.30;;;14.10;99.90;;;;;;5082574;28;20491;-63
2023/09/22 04:01:55;;;;;;;16.83;11.35;;;14.30;99.90;;;;;;5083362;28;20048;-63
2023/09/22 04:04:22;;;;;;;14.70;11.38;;;14.40;99.90;;;;;;5085200;28;20498;-63
2023/09/22 04:06:49;;;;;;;18.30;12.48;;;14.40;99.90;;;;;;5087685;28;20044;-62
2023/09/22 04:09:16;;;;;;;16.55;10.00;;;14.40;99.90;;;;;;5084964;28;20125;-62
2023/09/22 04:11:43;;;;;;;19.80;14.27;;;14.30;99.90;;;;;;5089090;28;20048;-62
2023/09/22 04:14:11;;;;;;;15.52;11.02;;;14.30;99.90;;;;;;5090096;28;20101;-62
2023/09/22 04:16:38;;;;;;;13.77;10.48;;;14.40;99.90;;;;;;5091326;28;20129;-63
2023/09/22 04:19:06;;;;;;;18.05;12.30;;;14.40;99.90;;;;;;5088239;28;20412;-62
2023/09/22 04:21:42;;;;;;;;;;;14.30;99.90;;;;;;5093217;28;20583;-63
2023/09/22 04:24:09;;;;;;;16.73;11.98;;;14.20;99.90;;;;;;5086164;28;19920;-62
2023/09/22 04:26:42;;;;;;;20.63;11.85;;;14.30;99.90;;;;;;5086225;28;20059;-63
2023/09/22 04:29:11;;;;;;;18.77;11.90;;;14.30;99.90;;;;;;5089029;28;20124;-63
2023/09/22 04:31:38;;;;;;;17.02;10.45;;;14.20;99.90;;;;;;5090401;28;20059;-63
2023/09/22 04:34:05;;;;;;;15.63;9.90;;;14.20;99.90;;;;;;5091007;28;20052;-66
2023/09/22 04:36:32;;;;;;;16.35;10.95;;;14.20;99.90;;;;;;5090376;28;20484;-63
2023/09/22 04:39:00;;;;;;;17.60;11.20;;;14.20;99.90;;;;;;5089753;28;20048;-63
2023/09/22 04:41:26;;;;;;;19.20;11.93;;;14.10;99.90;;;;;;5087857;28;20113;-63
2023/09/22 04:43:54;;;;;;;18.25;11.00;;;13.90;99.90;;;;;;5089630;28;20089;-64
2023/09/22 04:46:22;;;;;;;17.17;10.68;;;13.90;99.90;;;;;;5088090;28;20105;-65
2023/09/22 04:48:49;;;;;;;16.75;11.00;;;14.00;99.90;;;;;;5085592;28;20049;-65
2023/09/22 04:51:16;;;;;;;16.85;11.80;;;14.00;99.90;;;;;;5088168;28;20089;-65
2023/09/22 04:53:43;;;;;;;19.80;13.52;;;14.00;99.90;;;;;;5090639;28;20040;-65
2023/09/22 04:56:10;;;;;;;18.88;11.60;;;14.00;99.90;;;;;;5089027;28;20059;-63
2023/09/22 04:58:38;;;;;;;21.75;13.75;;;14.10;99.90;;;;;;5091011;28;20063;-62
2023/09/22 05:01:05;;;;;;;22.02;15.05;;;14.00;99.90;;;;;;5089599;28;20040;-63
2023/09/22 05:03:34;;;;;;;23.45;14.35;;;14.00;99.90;;;;;;5084619;28;20407;-64
2023/09/22 05:06:06;;;;;;;20.80;14.73;;;13.90;99.90;;;;;;5089004;28;20565;-64
2023/09/22 05:08:33;;;;;;;22.27;15.13;;;13.80;99.90;;;;;;5091137;28;20044;-64
2023/09/22 05:11:03;;;;;;;23.65;14.73;;;13.70;99.90;;;;;;5087383;28;20052;-64
2023/09/22 05:13:30;;;;;;;22.45;16.65;;;13.70;99.90;;;;;;5090228;28;20067;-64
2023/09/22 05:16:06;;;;;;;29.83;15.65;;;13.60;99.90;;;;;;5090149;28;20058;-64
2023/09/22 05:18:34;;;;;;;25.20;15.27;;;13.60;99.90;;;;;;5090675;28;20047;-64
2023/09/22 05:21:02;;;;;;;28.98;16.67;;;13.60;99.90;;;;;;5088115;28;20458;-64
2023/09/22 05:23:29;;;;;;;23.88;16.33;;;13.60;99.90;;;;;;5089989;28;20054;-64
2023/09/22 05:25:57;;;;;;;23.77;15.65;;;13.60;99.90;;;;;;5088089;28;20059;-62
2023/09/22 05:28:24;;;;;;;22.90;16.00;;;13.50;99.90;;;;;;5091437;28;20538;-63
2023/09/22 05:30:51;;;;;;;24.17;16.15;;;13.50;99.90;;;;;;5088481;28;20708;-63
2023/09/22 05:33:18;;;;;;;21.50;14.90;;;13.40;99.90;;;;;;5090039;28;20059;-61
2023/09/22 05:35:46;;;;;;;21.42;14.57;;;13.40;99.90;;;;;;5088806;28;20056;-61
2023/09/22 05:38:13;;;;;;;24.05;16.13;;;13.30;99.90;;;;;;5089516;28;20099;-63
2023/09/22 05:40:40;;;;;;;24.00;15.18;;;13.30;99.90;;;;;;5089583;28;20515;-63
2023/09/22 05:43:10;;;;;;;24.77;15.50;;;13.30;99.90;;;;;;5088752;28;20060;-63
2023/09/22 05:45:37;;;;;;;25.58;16.02;;;13.30;99.90;;;;;;5092146;28;20048;-64
2023/09/22 05:48:05;;;;;;;23.38;15.50;;;13.30;99.90;;;;;;5090570;28;20130;-63
2023/09/22 05:50:32;;;;;;;24.83;15.77;;;13.30;99.90;;;;;;5090076;28;20090;-63
2023/09/22 05:53:00;;;;;;;25.95;16.00;;;13.30;99.90;;;;;;5089290;28;20101;-62
2023/09/22 05:55:28;;;;;;;23.02;15.00;;;13.30;99.90;;;;;;5091005;28;20507;-64
2023/09/22 05:57:55;;;;;;;30.63;16.77;;;13.30;99.90;;;;;;5081742;28;20504;-63
2023/09/22 06:00:26;;;;;;;24.23;15.90;;;13.30;99.90;;;;;;5090299;28;20051;-63
2023/09/22 06:02:53;;;;;;;26.95;17.23;;;13.30;99.90;;;;;;5084123;28;20109;-62
2023/09/22 06:05:22;;;;;;;25.30;17.05;;;13.30;99.90;;;;;;5089005;28;20055;-62
2023/09/22 06:07:49;;;;;;;28.10;17.70;;;13.30;99.90;;;;;;5088612;28;20044;-61
2023/09/22 06:10:18;;;;;;;27.73;16.23;;;13.30;99.90;;;;;;5086358;28;20089;-62
2023/09/22 06:12:46;;;;;;;28.95;16.77;;;13.30;99.90;;;;;;5088682;28;20571;-62
2023/09/22 06:15:13;;;;;;;26.33;16.92;;;13.30;99.90;;;;;;5086743;28;20051;-62
2023/09/22 06:17:40;;;;;;;26.42;17.60;;;13.30;99.90;;;;;;5087360;28;20116;-62
2023/09/22 06:20:13;;;;;;;31.30;16.63;;;13.30;99.90;;;;;;5087976;28;20063;-62
2023/09/22 06:22:42;;;;;;;25.40;16.45;;;13.30;99.90;;;;;;5087888;28;20531;-61
2023/09/22 06:25:10;;;;;;;28.88;17.98;;;13.30;99.90;;;;;;5087674;28;20075;-62
2023/09/22 06:27:38;;;;;;;29.00;18.17;;;13.40;99.90;;;;;;5089575;28;20444;-62
2023/09/22 06:30:10;;;;;;;29.20;17.13;;;13.40;99.90;;;;;;5085204;28;20056;-63
2023/09/22 06:32:41;;;;;;;26.83;17.00;;;13.40;99.90;;;;;;5084413;28;20101;-64
2023/09/22 06:35:10;;;;;;;26.35;16.25;;;13.40;99.90;;;;;;5084361;28;20460;-64
2023/09/22 06:37:37;;;;;;;26.80;17.98;;;13.40;99.90;;;;;;5087977;28;20486;-64
2023/09/22 06:40:11;;;;;;;27.67;17.60;;;13.40;99.90;;;;;;5083173;28;20431;-64
2023/09/22 06:42:41;;;;;;;26.40;16.00;;;13.50;99.90;;;;;;5087396;28;20052;-64
2023/09/22 06:45:10;;;;;;;25.15;16.50;;;13.50;99.90;;;;;;5088377;28;20495;-64
2023/09/22 06:47:37;;;;;;;26.00;16.67;;;13.50;99.90;;;;;;5087543;28;20142;-64
2023/09/22 06:50:08;;;;;;;27.38;16.70;;;13.60;99.90;;;;;;5088131;28;20047;-65
2023/09/22 06:52:35;;;;;;;26.75;16.15;;;13.60;99.90;;;;;;5087296;28;20048;-65
2023/09/22 06:55:02;;;;;;;26.23;16.05;;;13.70;99.90;;;;;;5085985;28;20484;-62
2023/09/22 06:57:29;;;;;;;26.63;15.52;;;13.80;99.90;;;;;;5100061;28;20074;-63
2023/09/22 06:59:58;;;;;;;26.08;14.98;;;13.80;99.90;;;;;;5096323;28;20048;-64
2023/09/22 07:02:26;;;;;;;25.50;15.77;;;13.80;99.90;;;;;;5086588;28;20052;-65
2023/09/22 07:04:53;;;;;;;24.20;16.25;;;13.90;99.90;;;;;;5090151;28;20142;-65
2023/09/22 07:07:20;;;;;;;23.40;14.82;;;14.00;99.90;;;;;;5086662;28;20055;-64
2023/09/22 07:09:47;;;;;;;29.30;15.05;;;14.10;99.90;;;;;;5090025;28;20352;-64
2023/09/22 07:12:14;;;;;;;22.60;14.50;;;14.10;99.90;;;;;;5090148;28;20059;-63
2023/09/22 07:14:41;;;;;;;22.98;14.18;;;14.10;99.90;;;;;;5096827;28;20044;-64
2023/09/22 07:17:09;;;;;;;21.75;14.10;;;14.00;99.90;;;;;;5108909;28;20093;-65
2023/09/22 07:19:39;;;;;;;22.10;13.63;;;14.00;99.90;;;;;;5100602;28;20040;-64
2023/09/22 07:22:08;;;;;;;18.58;11.50;;;14.00;99.90;;;;;;5090011;28;20059;-63
2023/09/22 07:24:35;;;;;;;18.50;11.57;;;14.00;99.90;;;;;;5088879;28;20395;-64
2023/09/22 07:27:02;;;;;;;17.58;11.77;;;13.90;99.90;;;;;;5108324;28;20077;-64
2023/09/22 07:29:29;;;;;;;22.58;11.77;;;13.90;99.90;;;;;;5076878;28;20059;-64
2023/09/22 07:31:56;;;;;;;18.75;10.93;;;13.90;99.90;;;;;;5088986;28;20059;-64
2023/09/22 07:34:24;;;;;;;18.65;11.25;;;13.90;99.90;;;;;;5088381;28;20489;-65
2023/09/22 07:36:51;;;;;;;21.77;11.90;;;13.90;99.90;;;;;;5090487;28;20054;-65
2023/09/22 07:39:18;;;;;;;18.58;10.70;;;13.90;99.90;;;;;;5108711;28;20054;-65
2023/09/22 07:41:46;;;;;;;22.25;11.55;;;13.90;99.90;;;;;;5087521;28;20054;-65
2023/09/22 07:44:14;;;;;;;17.95;10.57;;;13.90;99.90;;;;;;5088011;28;20123;-65
2023/09/22 07:46:41;;;;;;;17.80;11.20;;;13.90;99.90;;;;;;5082340;28;20059;-66
2023/09/22 07:49:08;;;;;;;18.30;11.00;;;13.90;99.90;;;;;;5097497;28;20052;-65
2023/09/22 07:51:36;;;;;;;18.15;11.73;;;13.90;99.90;;;;;;5094509;28;20096;-65
2023/09/22 07:54:03;;;;;;;18.30;12.05;;;13.90;99.90;;;;;;5092634;28;20047;-66
2023/09/22 07:56:30;;;;;;;17.60;11.70;;;13.90;99.90;;;;;;5111864;28;20051;-65
2023/09/22 07:58:58;;;;;;;18.00;11.85;;;14.00;99.90;;;;;;5093581;28;20048;-62
2023/09/22 08:01:26;;;;;;;18.23;11.43;;;14.00;99.90;;;;;;5094759;28;20104;-63
2023/09/22 08:03:53;;;;;;;16.55;11.35;;;14.00;99.90;;;;;;5088879;28;20501;-63
2023/09/22 08:06:20;;;;;;;17.55;10.88;;;14.00;99.90;;;;;;5095677;28;20050;-64
2023/09/22 08:08:49;;;;;;;17.88;10.82;;;14.00;99.90;;;;;;5092879;28;20122;-63
2023/09/22 08:11:17;;;;;;;16.52;10.05;;;14.00;99.90;;;;;;5092735;28;20086;-64
2023/09/22 08:13:45;;;;;;;21.23;10.93;;;14.00;99.90;;;;;;5093883;28;20047;-62
2023/09/22 08:16:13;;;;;;;15.77;10.98;;;14.00;99.90;;;;;;5110252;28;20437;-63
2023/09/22 08:18:40;;;;;;;19.20;11.45;;;14.10;99.90;;;;;;5094262;28;20069;-63
2023/09/22 08:21:07;;;;;;;16.77;10.43;;;14.10;99.90;;;;;;5091899;28;20097;-63
2023/09/22 08:23:34;;;;;;;15.52;10.90;;;14.30;99.90;;;;;;5109582;28;20449;-63
2023/09/22 08:26:05;;;;;;;16.38;10.10;;;14.30;99.90;;;;;;5105411;28;20101;-63
2023/09/22 08:28:33;;;;;;;14.60;9.73;;;14.40;99.90;;;;;;5093756;28;20132;-63
2023/09/22 08:31:00;;;;;;;16.83;9.80;;;14.60;99.90;;;;;;5090466;28;20056;-63
2023/09/22 08:33:27;;;;;;;13.43;9.60;;;14.70;99.90;;;;;;5093258;28;20576;-63
2023/09/22 08:35:53;;;;;;;13.90;9.95;;;14.70;99.90;;;;;;5110186;28;20039;-62
2023/09/22 08:38:20;;;;;;;14.25;9.63;;;14.70;99.90;;;;;;5108875;28;20097;-63
2023/09/22 08:40:47;;;;;;;14.23;8.20;;;14.70;99.90;;;;;;5093892;28;20105;-63
2023/09/22 08:43:16;;;;;;;13.57;8.90;;;14.70;99.90;;;;;;5092670;28;20097;-63
2023/09/22 08:45:43;;;;;;;11.02;8.85;;;14.70;99.90;;;;;;5091979;28;20048;-63
2023/09/22 08:48:10;;;;;;;14.55;9.10;;;14.70;99.90;;;;;;5049314;28;20450;-63
2023/09/22 08:50:39;;;;;;;12.02;8.60;;;14.60;99.90;;;;;;5092315;28;20047;-63
2023/09/22 08:53:06;;;;;;;20.02;9.82;;;14.70;99.90;;;;;;5090925;28;20083;-63
2023/09/22 08:55:33;;;;;;;12.60;8.73;;;14.60;99.90;;;;;;5092572;28;20131;-63
2023/09/22 08:58:01;;;;;;;16.42;8.85;;;14.60;99.90;;;;;;5105311;28;20075;-62
2023/09/22 09:00:30;;;;;;;13.40;8.50;;;14.70;99.90;;;;;;5108842;28;20055;-62
2023/09/22 09:02:59;;;;;;;13.35;7.65;;;14.90;99.90;;;;;;5105252;28;20898;-63
2023/09/22 09:05:28;;;;;;;12.97;7.73;;;15.50;99.90;;;;;;5086295;28;20058;-63
2023/09/22 09:07:57;;;;;;;10.52;7.18;;;16.20;99.90;;;;;;5089410;28;20097;-62
2023/09/22 09:10:29;;;;;;;12.18;6.65;;;16.50;99.90;;;;;;5092218;28;20047;-82
2023/09/22 09:13:01;;;;;;;9.25;5.70;;;17.20;99.90;;;;;;5090548;28;20059;-64
2023/09/22 09:15:30;;;;;;;7.30;5.13;;;17.10;99.90;;;;;;5110834;28;20063;-63
2023/09/22 09:18:08;;;;;;;5.60;4.55;;;18.80;99.90;;;;;;5108851;28;20544;-63
2023/09/22 09:20:37;;;;;;;7.15;5.00;;;18.70;99.90;;;;;;5092304;28;20555;-63
2023/09/22 09:23:15;;;;;;;6.50;4.15;;;18.50;99.90;;;;;;5093497;28;20044;-64
2023/09/22 09:25:43;;;;;;;5.50;3.50;;;18.40;99.90;;;;;;5090468;28;20140;-64
2023/09/22 09:28:12;;;;;;;8.65;4.18;;;18.20;99.90;;;;;;5093099;28;20075;-65
2023/09/22 09:30:51;;;;;;;5.20;3.40;;;17.80;99.90;;;;;;5090311;28;20530;-63
2023/09/22 09:33:20;;;;;;;5.88;3.53;;;18.00;99.90;;;;;;5092357;28;20055;-63
2023/09/22 09:35:47;;;;;;;5.37;3.50;;;17.80;99.90;;;;;;5092381;28;20051;-64
2023/09/22 09:38:15;;;;;;;6.43;3.72;;;17.50;99.90;;;;;;5093188;28;20136;-64
2023/09/22 09:40:42;;;;;;;6.45;3.90;;;17.30;99.90;;;;;;5089796;28;20479;-64
2023/09/22 09:43:13;;;;;;;5.82;3.25;;;16.90;99.90;;;;;;5093169;28;20445;-63
2023/09/22 09:45:46;;;;;;;5.65;3.35;;;16.80;99.90;;;;;;5092958;28;20053;-63
2023/09/22 09:48:16;;;;;;;5.05;3.05;;;16.80;99.90;;;;;;5109894;28;20052;-64
2023/09/22 09:50:48;;;;;;;4.45;3.17;;;17.20;99.90;;;;;;5091536;28;20058;-64
2023/09/22 09:53:26;;;;;;;5.05;2.53;;;18.30;99.90;;;;;;5090070;28;20055;-64
2023/09/22 09:55:58;;;;;;;5.60;1.90;;;19.80;99.90;;;;;;5108864;28;20043;-64
2023/09/22 09:58:29;;;;;;;6.18;1.80;;;21.20;99.90;;;;;;5110503;28;20561;-64
2023/09/22 10:00:58;;;;;;;3.72;1.70;;;22.00;99.90;;;;;;5108160;28;20048;-64
2023/09/22 10:03:25;;;;;;;4.95;2.00;;;22.30;99.90;;;;;;5089238;28;20047;-66
2023/09/22 10:05:55;;;;;;;5.32;1.90;;;22.50;99.90;;;;;;5089826;27;20047;-65
2023/09/22 10:08:23;;;;;;;3.05;1.60;;;22.90;99.90;;;;;;5110832;28;20138;-64
2023/09/22 10:10:52;;;;;;;3.88;1.40;;;23.40;99.90;;;;;;5091838;28;20108;-64
2023/09/22 10:13:20;;;;;;;7.00;1.30;;;23.70;99.20;;;;;;5092119;28;20055;-64
2023/09/22 10:15:53;;;;;;;2.20;1.30;;;23.80;99.90;;;;;;5111454;28;20048;-64
2023/09/22 10:18:23;;;;;;;3.10;1.52;;;23.60;98.20;;;;;;5111934;28;20104;-64
2023/09/22 10:20:51;;;;;;;2.85;1.30;;;24.00;98.30;;;;;;5093943;28;20444;-64
2023/09/22 10:23:22;;;;;;;4.03;1.30;;;24.80;98.50;;;;;;5092772;28;20071;-65
2023/09/22 10:26:18;;;;;;;5.35;1.55;;;24.70;97.00;;;;;;5093371;28;20086;-65
2023/09/22 10:28:45;;;;;;;3.90;1.50;;;24.30;96.30;;;;;;5093881;28;20048;-65
2023/09/22 10:31:12;;;;;;;3.00;1.10;;;23.20;97.70;;;;;;5092871;28;20063;-64
2023/09/22 10:33:42;;;;;;;6.07;1.40;;;22.00;99.50;;;;;;5093500;28;20495;-66
2023/09/22 10:36:10;;;;;;;2.80;1.33;;;21.00;99.90;;;;;;5111187;28;20062;-64
2023/09/22 10:38:53;;;;;;;4.22;1.23;;;20.70;99.90;;;;;;5093135;28;20051;-63
2023/09/22 10:41:20;;;;;;;1.58;0.80;;;20.20;99.90;;;;;;5093083;28;20056;-64
2023/09/22 10:43:58;;;;;;;2.00;0.93;;;19.60;99.90;;;;;;5093325;28;20047;-64
2023/09/22 10:46:25;;;;;;;2.08;1.20;;;19.20;99.90;;;;;;5091371;28;20134;-64
2023/09/22 10:48:54;;;;;;;4.60;1.38;;;18.90;99.90;;;;;;5088869;28;20078;-64
2023/09/22 10:51:23;;;;;;;6.15;1.40;;;18.90;99.90;;;;;;5090136;28;20509;-63
2023/09/22 10:54:00;;;;;;;3.55;1.20;;;18.70;99.90;;;;;;5093219;28;20486;-63
2023/09/22 10:56:28;;;;;;;1.63;1.15;;;19.00;99.90;;;;;;5110882;28;20560;-64
2023/09/22 10:58:55;;;;;;;2.40;1.30;;;19.40;99.90;;;;;;5110794;28;20051;-64
2023/09/22 11:01:23;;;;;;;3.05;1.13;;;19.60;99.90;;;;;;5093064;28;20052;-64
2023/09/22 11:03:55;;;;;;;4.07;1.40;;;19.60;99.90;;;;;;5093095;28;20150;-64
2023/09/22 11:06:22;;;;;;;3.92;1.30;;;19.30;99.90;;;;;;5109961;28;20123;-64
2023/09/22 11:08:51;;;;;;;2.00;1.20;;;19.20;99.90;;;;;;5092925;28;20052;-64
2023/09/22 11:11:18;;;;;;;4.40;1.58;;;19.00;99.90;;;;;;5110885;28;20046;-63
2023/09/22 11:13:52;;;;;;;2.88;1.67;;;19.50;99.90;;;;;;5109588;28;20055;-64
2023/09/22 11:16:20;;;;;;;3.72;1.20;;;19.90;99.90;;;;;;5110427;28;20116;-64
2023/09/22 11:18:47;;;;;;;2.70;1.33;;;21.10;99.90;;;;;;5110069;28;20438;-63
2023/09/22 11:21:18;;;;;;;2.50;1.20;;;22.20;99.90;;;;;;5092284;28;20147;-63
2023/09/22 11:23:45;;;;;;;;;;;22.00;99.90;;;;;;5093553;28;20138;-64
2023/09/22 11:26:13;;;;;;;2.25;1.20;;;21.30;99.70;;;;;;5102974;28;20279;-65
2023/09/22 11:28:41;;;;;;;3.55;1.50;;;20.90;99.90;;;;;;5093258;28;20723;-64
2023/09/22 11:31:14;;;;;;;3.40;1.25;;;20.40;99.90;;;;;;5112161;28;20051;-63
2023/09/22 11:33:41;;;;;;;3.55;1.80;;;20.20;99.90;;;;;;5089903;28;20505;-63
2023/09/22 11:36:10;;;;;;;2.50;1.50;;;19.80;99.90;;;;;;5107778;28;20055;-64
2023/09/22 11:38:40;;;;;;;3.95;1.50;;;19.30;99.90;;;;;;5089030;28;20058;-64
2023/09/22 11:41:11;;;;;;;2.55;1.30;;;19.10;99.90;;;;;;5091292;28;20047;-64
2023/09/22 11:43:45;;;;;;;2.92;1.52;;;19.00;99.90;;;;;;5110689;28;20040;-64
2023/09/22 11:46:14;;;;;;;4.00;1.65;;;19.70;99.90;;;;;;5093065;28;20432;-63
2023/09/22 11:49:00;;;;;;;4.25;1.70;;;20.30;99.90;;;;;;5091114;28;20059;-63
2023/09/22 11:51:48;;;;;;;3.03;1.50;;;20.20;99.90;;;;;;5093511;28;20392;-64
2023/09/22 11:54:17;;;;;;;4.40;1.50;;;19.80;99.90;;;;;;5093208;28;20488;-64
2023/09/22 11:56:45;;;;;;;4.55;1.60;;;20.20;99.90;;;;;;5093125;28;20059;-64
2023/09/22 11:59:14;;;;;;;2.95;1.52;;;20.10;99.90;;;;;;5093620;28;20399;-63
2023/09/22 12:01:41;;;;;;;1.88;1.17;;;21.00;99.90;;;;;;5093078;28;20048;-64
2023/09/22 12:04:09;;;;;;;5.75;1.75;;;20.60;99.90;;;;;;5093531;28;20507;-63
2023/09/22 12:06:37;;;;;;;1.65;1.00;;;20.20;99.90;;;;;;5093640;28;20075;-63
2023/09/22 12:09:04;;;;;;;4.43;1.48;;;19.80;99.90;;;;;;5091256;28;20043;-63
2023/09/22 12:11:32;;;;;;;2.10;1.20;;;19.10;99.90;;;;;;5093383;28;20052;-63
2023/09/22 12:14:00;;;;;;;2.58;1.40;;;18.80;99.90;;;;;;5111956;28;20043;-63
2023/09/22 12:16:27;;;;;;;1.67;1.10;;;18.40;99.90;;;;;;5092751;28;20546;-64
2023/09/22 12:18:55;;;;;;;2.50;1.30;;;18.20;99.90;;;;;;5111661;28;20047;-63
2023/09/22 12:21:22;;;;;;;3.85;1.85;;;18.00;99.90;;;;;;5092557;28;20055;-63
2023/09/22 12:23:49;;;;;;;4.72;1.73;;;18.00;99.90;;;;;;5083789;28;20385;-68
2023/09/22 12:26:16;;;;;;;2.97;1.58;;;18.10;99.90;;;;;;5084020;28;20090;-63
2023/09/22 12:28:45;;;;;;;1.88;1.17;;;18.30;99.90;;;;;;5087697;28;20047;-63
2023/09/22 12:31:11;;;;;;;2.88;1.50;;;18.60;99.90;;;;;;5089774;28;20130;-64
2023/09/22 12:33:39;;;;;;;5.10;2.25;;;18.60;99.90;;;;;;5110052;28;20483;-64
2023/09/22 12:36:07;;;;;;;5.88;1.52;;;18.70;99.90;;;;;;5090941;28;20074;-64
2023/09/22 12:38:35;;;;;;;3.33;1.90;;;18.70;99.90;;;;;;5113933;28;20089;-66
2023/09/22 12:41:04;;;;;;;3.45;1.73;;;18.50;99.90;;;;;;5096884;28;20051;-67